メインページ
METAR-TAF:

METAR-TAF

空港 :

スポケーン国際空港

スポケーン, ワシントン, アメリカ合衆国

緯度: 47-37-17N, 経度: 117-31-40W, 海抜: 723m

現時点の気象観測

当レポートは18分前の12:53(UTC)に作成
南/南東の風 4kt
気温 1°C
湿度 93%
気圧 1006 hPa
視程: 2.0km
高度100ftの雲はほとんどない
高度7000ftの雲は散在している
高度21000ftの千切れ雲あり
靄, 散在霧

METAR: KGEG 061253Z 15004KT 1 1/4SM R21/4000VP6000FT BR BCFG FEW001 SCT070 BKN210 01/00 A2971 RMK AO2 TWR VIS 2 SLP071 VIS SE-SW 1/2 T00110000

時間: 06:11 (13:11 UTC)

予報

当レポートは1時間35分前の11:36(UTC)に作成
予報は06日の 12時(UTC)から 07日の 12時(UTC)まで有効
の風 kt
視程: 9.7km
高度100ftの雲はほとんどない
高度1500ftの雲はほとんどない
高度7000ftの千切れ雲あり
靄, 散在霧
06日の 12時(UTC)から 06日の 14時(UTC)まで一時的に
視程: 3.2km
高度500ftの千切れ雲あり
06日の 1700時(UTC)から
西/南西の風 9kt
視程: 10km
高度4500ftの雲は散在している
06日の 1900時(UTC)から
西/南西の風 8kt、最大15ktの突風を伴う
視程: 10km
高度4500ftの千切れ雲あり
07日の 0200時(UTC)から
南/南西の風 5kt
視程: 10km
高度18000ftの雲はほとんどない
07日の 0800時(UTC)から
南/南西の風 11kt、最大15ktの突風を伴う
視程: 10km
高度20000ftの雲はほとんどない

TAF: KGEG 061136Z 0612/0712 00000KT 6SM BR BCFG FEW001 FEW015 BKN070 TEMPO 0612/0614 2SM BR BKN005 FM061700 24009KT P6SM SCT045 FM061900 24008G15KT P6SM BKN045 FM070200 21005KT P6SM FEW180 FM070800 20011G15KT P6SM FEW200

4,000以上の空港の気象観測と天気予報(METAR報とTAF報)

利用可能な観測所は地図上に黄色い丸と赤い丸で示す。

丸の上にカーソルを重ねると観測所名を参照できる。

次にクリックすると気象観測と天気予報を参照できる。

マップの切り替え:黒色「×」印の緑ボタンをクリックして拡大、「-」印の緑ボタンをクリックして縮小、緑色の三角印をクリックして隣りの地図に切り替え


METAR-TAF: